Nyk Constellation — V7NP4 — position and weather

sailwx.info

Track history (hours):
 
Tides and Currents Weather Stations Pressure Air Temp Water Temp Dewpoint Dewpoint Depression Visibility Wind Speed Wind Dir Waves Ship Positions

Nyk Constellation

Last reported at 2017-Jun-21 10:17 UTC. Time now 2017-Jun-24 01:56 UTC.
Position N 33°52' E 134°57'.

Length 294 m; draft 7.7 m.

Type: Cargo ship. MMSI: 538002992.

Date/timePositionNaut miles runAvg speedWind from/ knotsBaromVisibWave heightAir tempDewpointWater temp
2017-Jun-21 10:17N 33°52' E 134°57'311.8
2017-Jun-21 10:00N 33°56' E 134°57'612.1
2017-Jun-21 09:31N 34°02' E 134°58'611.8
2017-Jun-21 09:00N 34°08' E 134°58'611.3
2017-Jun-21 08:31N 34°13' E 134°58'4 7.0
2017-Jun-21 08:00N 34°17' E 134°59'816.0
2017-Jun-21 07:30N 34°24' E 135°02'918.2
2017-Jun-21 07:00N 34°30' E 135°10'917.3
2017-Jun-21 06:30N 34°37' E 135°17'4 7.5
2017-Jun-21 06:00N 34°41' E 135°18'0 0.5
2017-Jun-21 05:09N 34°41' E 135°17'0 0.0
2017-Jun-21 04:45N 34°41' E 135°17'0 0.0
2017-Jun-21 04:27N 34°41' E 135°17'0 0.0
2017-Jun-21 03:57N 34°41' E 135°17'0 0.0
2017-Jun-21 03:27N 34°41' E 135°17'0 0.0
2017-Jun-21 02:57N 34°41' E 135°17'0 0.0
2017-Jun-21 02:21N 34°41' E 135°17'0 0.0
2017-Jun-21 01:57N 34°41' E 135°17'0 0.0
2017-Jun-21 01:27N 34°41' E 135°17'0 0.0
2017-Jun-21 00:57N 34°41' E 135°17'0 0.0
2017-Jun-21 00:27N 34°41' E 135°17'0 0.0
2017-Jun-20 23:57N 34°41' E 135°17'0 0.0
2017-Jun-20 23:27N 34°41' E 135°17'0 0.0
2017-Jun-20 22:51N 34°41' E 135°17'0 0.0
2017-Jun-20 22:27N 34°41' E 135°17'0 0.0
2017-Jun-20 21:57N 34°41' E 135°17'0 0.0
2017-Jun-20 21:27N 34°41' E 135°17'0 0.0
2017-Jun-20 20:57N 34°41' E 135°17'0 0.0
2017-Jun-20 20:21N 34°41' E 135°17'0 0.0
2017-Jun-20 19:57N 34°41' E 135°17'0 0.0
2017-Jun-20 19:27N 34°41' E 135°17'0 0.0
2017-Jun-20 18:57N 34°41' E 135°17'0 0.0
2017-Jun-20 18:27N 34°41' E 135°17'0 0.0
2017-Jun-20 17:57N 34°41' E 135°17'0 0.0
2017-Jun-20 17:27N 34°41' E 135°17'0 0.0
2017-Jun-20 16:57N 34°41' E 135°17'0 0.0
2017-Jun-20 16:27N 34°41' E 135°17'0 0.0
2017-Jun-20 15:57N 34°41' E 135°17'0 0.0
2017-Jun-20 15:21N 34°41' E 135°17'0 0.0
2017-Jun-20 14:57N 34°41' E 135°17'0 0.0
2017-Jun-20 14:27N 34°41' E 135°17'0 0.0
2017-Jun-20 13:21N 34°41' E 135°17'0 0.0
2017-Jun-20 12:57N 34°41' E 135°17'0 0.2
2017-Jun-20 12:30N 34°41' E 135°17'2 3.6
2017-Jun-20 12:00N 34°39' E 135°18'2 2.8
2017-Jun-20 11:27N 34°38' E 135°18'0 0.0
2017-Jun-20 10:57N 34°38' E 135°18'0 0.1
2017-Jun-20 10:21N 34°38' E 135°18'0 0.1
2017-Jun-20 09:57N 34°38' E 135°18'0 0.0
2017-Jun-20 09:27N 34°38' E 135°18'0 0.0
2017-Jun-20 08:57N 34°38' E 135°18'0 0.0
2017-Jun-20 08:27N 34°38' E 135°18'0 0.0
2017-Jun-20 07:45N 34°38' E 135°18'0 0.0
2017-Jun-20 07:21N 34°38' E 135°18'0 0.1
2017-Jun-20 06:57N 34°38' E 135°18'0 0.0
2017-Jun-20 06:27N 34°38' E 135°18'0 0.0
2017-Jun-20 05:57N 34°38' E 135°18'0 0.0
2017-Jun-20 05:21N 34°38' E 135°18'0 0.0
2017-Jun-20 04:57N 34°38' E 135°18'0 0.1
2017-Jun-20 04:27N 34°38' E 135°18'0 0.7
2017-Jun-20 04:00N 34°38' E 135°18'4 7.2
2017-Jun-20 03:30N 34°34' E 135°15'816.6
2017-Jun-20 03:00N 34°28' E 135°09'1018.3
2017-Jun-20 02:27N 34°20' E 135°02'715.0
2017-Jun-20 02:00N 34°14' E 134°59'511.1
2017-Jun-20 01:30N 34°08' E 135°00'5 9.5
2017-Jun-20 01:00N 34°04' E 134°58'4 8.0
2017-Jun-20 00:28N 33°60' E 134°56'246 6.5
2017-Jun-18 10:35N 35°06' E 139°43'513.0
2017-Jun-18 10:13N 35°10' E 139°46'210.2
2017-Jun-18 10:00N 35°12' E 139°46'612.0
2017-Jun-18 09:30N 35°18' E 139°44'611.7
2017-Jun-18 09:00N 35°24' E 139°43'815.4
2017-Jun-18 08:30N 35°29' E 139°50'510.8
2017-Jun-18 08:00N 35°34' E 139°49'2 4.9
2017-Jun-18 07:30N 35°36' E 139°46'0 0.1
2017-Jun-18 06:59N 35°36' E 139°46'0 0.0
2017-Jun-18 06:29N 35°36' E 139°46'0 0.0
2017-Jun-18 05:59N 35°36' E 139°46'0 0.0
2017-Jun-18 05:29N 35°36' E 139°46'0 0.0
2017-Jun-18 04:59N 35°36' E 139°46'0 0.0
2017-Jun-18 04:29N 35°36' E 139°46'0 0.0
2017-Jun-18 03:59N 35°36' E 139°46'0 0.0
2017-Jun-18 03:29N 35°36' E 139°46'0 0.0
2017-Jun-18 02:56N 35°36' E 139°46'0 0.0
2017-Jun-18 02:29N 35°36' E 139°46'0 0.0
2017-Jun-18 01:59N 35°36' E 139°46'0 0.0
2017-Jun-18 01:26N 35°36' E 139°46'0 0.0
2017-Jun-18 00:59N 35°36' E 139°46'0 0.0
2017-Jun-18 00:29N 35°36' E 139°46'0 0.0
2017-Jun-17 23:56N 35°36' E 139°46'0 0.0
2017-Jun-17 23:29N 35°36' E 139°46'0 0.0
2017-Jun-17 22:59N 35°36' E 139°46'0 0.0
2017-Jun-17 22:29N 35°36' E 139°46'2 3.4
2017-Jun-17 22:01N 35°35' E 139°48'510.4
2017-Jun-17 21:30N 35°31' E 139°52'713.9
2017-Jun-17 21:00N 35°25' E 139°47'612.6
2017-Jun-17 20:30N 35°20' E 139°44'612.0
2017-Jun-17 20:00N 35°14' E 139°47'510.7
2017-Jun-17 19:30N 35°09' E 139°47'4 8.4
2017-Jun-17 19:00N 35°05' E 139°45'711.8
2017-Jun-17 18:26N 34°59' E 139°40'511.5
2017-Jun-17 17:59N 34°54' E 139°41'  
Track history (hours):
 
Tides and Currents Weather Stations Pressure Air Temp Water Temp Dewpoint Dewpoint Depression Visibility Wind Speed Wind Dir Waves Ship Positions

Nyk Constellation

Last reported at 2017-Jun-21 10:17 UTC. Time now 2017-Jun-24 01:56 UTC.
Position N 33°52' E 134°57'.

Length 294 m; draft 7.7 m.

Type: Cargo ship. MMSI: 538002992.

Date/timePositionNaut miles runAvg speedWind from/ knotsBaromVisibWave heightAir tempDewpointWater temp
2017-Jun-21 10:17N 33°52' E 134°57'311.8
2017-Jun-21 10:00N 33°56' E 134°57'612.1
2017-Jun-21 09:31N 34°02' E 134°58'611.8
2017-Jun-21 09:00N 34°08' E 134°58'611.3
2017-Jun-21 08:31N 34°13' E 134°58'4 7.0
2017-Jun-21 08:00N 34°17' E 134°59'816.0
2017-Jun-21 07:30N 34°24' E 135°02'918.2
2017-Jun-21 07:00N 34°30' E 135°10'917.3
2017-Jun-21 06:30N 34°37' E 135°17'4 7.5
2017-Jun-21 06:00N 34°41' E 135°18'0 0.5
2017-Jun-21 05:09N 34°41' E 135°17'0 0.0
2017-Jun-21 04:45N 34°41' E 135°17'0 0.0
2017-Jun-21 04:27N 34°41' E 135°17'0 0.0
2017-Jun-21 03:57N 34°41' E 135°17'0 0.0
2017-Jun-21 03:27N 34°41' E 135°17'0 0.0
2017-Jun-21 02:57N 34°41' E 135°17'0 0.0
2017-Jun-21 02:21N 34°41' E 135°17'0 0.0
2017-Jun-21 01:57N 34°41' E 135°17'0 0.0
2017-Jun-21 01:27N 34°41' E 135°17'0 0.0
2017-Jun-21 00:57N 34°41' E 135°17'0 0.0
2017-Jun-21 00:27N 34°41' E 135°17'0 0.0
2017-Jun-20 23:57N 34°41' E 135°17'0 0.0
2017-Jun-20 23:27N 34°41' E 135°17'0 0.0
2017-Jun-20 22:51N 34°41' E 135°17'0 0.0
2017-Jun-20 22:27N 34°41' E 135°17'0 0.0
2017-Jun-20 21:57N 34°41' E 135°17'0 0.0
2017-Jun-20 21:27N 34°41' E 135°17'0 0.0
2017-Jun-20 20:57N 34°41' E 135°17'0 0.0
2017-Jun-20 20:21N 34°41' E 135°17'0 0.0
2017-Jun-20 19:57N 34°41' E 135°17'0 0.0
2017-Jun-20 19:27N 34°41' E 135°17'0 0.0
2017-Jun-20 18:57N 34°41' E 135°17'0 0.0
2017-Jun-20 18:27N 34°41' E 135°17'0 0.0
2017-Jun-20 17:57N 34°41' E 135°17'0 0.0
2017-Jun-20 17:27N 34°41' E 135°17'0 0.0
2017-Jun-20 16:57N 34°41' E 135°17'0 0.0
2017-Jun-20 16:27N 34°41' E 135°17'0 0.0
2017-Jun-20 15:57N 34°41' E 135°17'0 0.0
2017-Jun-20 15:21N 34°41' E 135°17'0 0.0
2017-Jun-20 14:57N 34°41' E 135°17'0 0.0
2017-Jun-20 14:27N 34°41' E 135°17'0 0.0
2017-Jun-20 13:21N 34°41' E 135°17'0 0.0
2017-Jun-20 12:57N 34°41' E 135°17'0 0.2
2017-Jun-20 12:30N 34°41' E 135°17'2 3.6
2017-Jun-20 12:00N 34°39' E 135°18'2 2.8
2017-Jun-20 11:27N 34°38' E 135°18'0 0.0
2017-Jun-20 10:57N 34°38' E 135°18'0 0.1
2017-Jun-20 10:21N 34°38' E 135°18'0 0.1
2017-Jun-20 09:57N 34°38' E 135°18'0 0.0
2017-Jun-20 09:27N 34°38' E 135°18'0 0.0
2017-Jun-20 08:57N 34°38' E 135°18'0 0.0
2017-Jun-20 08:27N 34°38' E 135°18'0 0.0
2017-Jun-20 07:45N 34°38' E 135°18'0 0.0
2017-Jun-20 07:21N 34°38' E 135°18'0 0.1
2017-Jun-20 06:57N 34°38' E 135°18'0 0.0
2017-Jun-20 06:27N 34°38' E 135°18'0 0.0
2017-Jun-20 05:57N 34°38' E 135°18'0 0.0
2017-Jun-20 05:21N 34°38' E 135°18'0 0.0
2017-Jun-20 04:57N 34°38' E 135°18'0 0.1
2017-Jun-20 04:27N 34°38' E 135°18'0 0.7
2017-Jun-20 04:00N 34°38' E 135°18'4 7.2
2017-Jun-20 03:30N 34°34' E 135°15'816.6
2017-Jun-20 03:00N 34°28' E 135°09'1018.3
2017-Jun-20 02:27N 34°20' E 135°02'715.0
2017-Jun-20 02:00N 34°14' E 134°59'511.1
2017-Jun-20 01:30N 34°08' E 135°00'5 9.5
2017-Jun-20 01:00N 34°04' E 134°58'4 8.0
2017-Jun-20 00:28N 33°60' E 134°56'246 6.5
2017-Jun-18 10:35N 35°06' E 139°43'513.0
2017-Jun-18 10:13N 35°10' E 139°46'210.2
2017-Jun-18 10:00N 35°12' E 139°46'612.0
2017-Jun-18 09:30N 35°18' E 139°44'611.7
2017-Jun-18 09:00N 35°24' E 139°43'815.4
2017-Jun-18 08:30N 35°29' E 139°50'510.8
2017-Jun-18 08:00N 35°34' E 139°49'2 4.9
2017-Jun-18 07:30N 35°36' E 139°46'0 0.1
2017-Jun-18 06:59N 35°36' E 139°46'0 0.0
2017-Jun-18 06:29N 35°36' E 139°46'0 0.0
2017-Jun-18 05:59N 35°36' E 139°46'0 0.0
2017-Jun-18 05:29N 35°36' E 139°46'0 0.0
2017-Jun-18 04:59N 35°36' E 139°46'0 0.0
2017-Jun-18 04:29N 35°36' E 139°46'0 0.0
2017-Jun-18 03:59N 35°36' E 139°46'0 0.0
2017-Jun-18 03:29N 35°36' E 139°46'0 0.0
2017-Jun-18 02:56N 35°36' E 139°46'0 0.0
2017-Jun-18 02:29N 35°36' E 139°46'0 0.0
2017-Jun-18 01:59N 35°36' E 139°46'0 0.0
2017-Jun-18 01:26N 35°36' E 139°46'0 0.0
2017-Jun-18 00:59N 35°36' E 139°46'0 0.0
2017-Jun-18 00:29N 35°36' E 139°46'0 0.0
2017-Jun-17 23:56N 35°36' E 139°46'0 0.0
2017-Jun-17 23:29N 35°36' E 139°46'0 0.0
2017-Jun-17 22:59N 35°36' E 139°46'0 0.0
2017-Jun-17 22:29N 35°36' E 139°46'2 3.4
2017-Jun-17 22:01N 35°35' E 139°48'510.4
2017-Jun-17 21:30N 35°31' E 139°52'713.9
2017-Jun-17 21:00N 35°25' E 139°47'612.6
2017-Jun-17 20:30N 35°20' E 139°44'612.0
2017-Jun-17 20:00N 35°14' E 139°47'510.7
2017-Jun-17 19:30N 35°09' E 139°47'4 8.4
2017-Jun-17 19:00N 35°05' E 139°45'711.8
2017-Jun-17 18:26N 34°59' E 139°40'511.5
2017-Jun-17 17:59N 34°54' E 139°41'  

Dump ship's entire track history